sensor_id;sensor_type;location;lat;lon;timestamp;P1;durP1;ratioP1;P2;durP2;ratioP2
75885;SDS011;64561;44.018;10.144;2023-07-16T00:01:08;14.82;;;8.10;;
75885;SDS011;64561;44.018;10.144;2023-07-16T00:03:35;15.25;;;8.23;;
75885;SDS011;64561;44.018;10.144;2023-07-16T00:06:02;13.00;;;7.80;;
75885;SDS011;64561;44.018;10.144;2023-07-16T00:08:30;16.25;;;8.35;;
75885;SDS011;64561;44.018;10.144;2023-07-16T00:10:57;16.35;;;8.30;;
75885;SDS011;64561;44.018;10.144;2023-07-16T00:13:24;13.90;;;7.72;;
75885;SDS011;64561;44.018;10.144;2023-07-16T00:15:51;13.38;;;7.90;;
75885;SDS011;64561;44.018;10.144;2023-07-16T00:18:18;14.10;;;8.75;;
75885;SDS011;64561;44.018;10.144;2023-07-16T00:20:45;19.88;;;7.93;;
75885;SDS011;64561;44.018;10.144;2023-07-16T00:23:12;11.38;;;7.47;;
75885;SDS011;64561;44.018;10.144;2023-07-16T00:25:40;13.73;;;7.65;;
75885;SDS011;64561;44.018;10.144;2023-07-16T00:28:07;13.52;;;7.38;;
75885;SDS011;64561;44.018;10.144;2023-07-16T00:30:34;12.73;;;7.88;;
75885;SDS011;64561;44.018;10.144;2023-07-16T00:33:01;10.45;;;6.80;;
75885;SDS011;64561;44.018;10.144;2023-07-16T00:35:28;16.77;;;8.70;;
75885;SDS011;64561;44.018;10.144;2023-07-16T00:37:57;15.70;;;8.05;;
75885;SDS011;64561;44.018;10.144;2023-07-16T00:40:24;16.00;;;8.52;;
75885;SDS011;64561;44.018;10.144;2023-07-16T00:42:51;13.52;;;6.60;;
75885;SDS011;64561;44.018;10.144;2023-07-16T00:45:18;10.50;;;7.18;;
75885;SDS011;64561;44.018;10.144;2023-07-16T00:47:45;12.98;;;7.70;;
75885;SDS011;64561;44.018;10.144;2023-07-16T00:50:13;13.90;;;7.40;;
75885;SDS011;64561;44.018;10.144;2023-07-16T00:52:40;8.82;;;6.90;;
75885;SDS011;64561;44.018;10.144;2023-07-16T00:55:08;11.30;;;6.97;;
75885;SDS011;64561;44.018;10.144;2023-07-16T00:57:37;10.50;;;6.72;;
75885;SDS011;64561;44.018;10.144;2023-07-16T01:00:05;12.75;;;6.95;;
75885;SDS011;64561;44.018;10.144;2023-07-16T01:02:34;9.30;;;5.80;;
75885;SDS011;64561;44.018;10.144;2023-07-16T01:05:01;10.07;;;6.35;;
75885;SDS011;64561;44.018;10.144;2023-07-16T01:07:30;11.93;;;6.13;;
75885;SDS011;64561;44.018;10.144;2023-07-16T01:10:00;9.23;;;5.82;;
75885;SDS011;64561;44.018;10.144;2023-07-16T01:12:29;9.50;;;5.72;;
75885;SDS011;64561;44.018;10.144;2023-07-16T01:14:59;11.38;;;7.22;;
75885;SDS011;64561;44.018;10.144;2023-07-16T01:17:29;8.80;;;6.13;;
75885;SDS011;64561;44.018;10.144;2023-07-16T01:19:56;10.77;;;6.32;;
75885;SDS011;64561;44.018;10.144;2023-07-16T01:22:27;10.38;;;6.00;;
75885;SDS011;64561;44.018;10.144;2023-07-16T01:31:10;10.65;;;6.13;;
75885;SDS011;64561;44.018;10.144;2023-07-16T01:33:39;9.05;;;5.45;;
75885;SDS011;64561;44.018;10.144;2023-07-16T01:36:12;11.48;;;5.93;;
75885;SDS011;64561;44.018;10.144;2023-07-16T01:38:41;9.45;;;5.80;;
75885;SDS011;64561;44.018;10.144;2023-07-16T01:41:08;7.90;;;6.32;;
75885;SDS011;64561;44.018;10.144;2023-07-16T01:43:35;10.55;;;7.00;;
75885;SDS011;64561;44.018;10.144;2023-07-16T01:46:02;12.20;;;6.53;;
75885;SDS011;64561;44.018;10.144;2023-07-16T01:48:31;7.85;;;6.10;;
75885;SDS011;64561;44.018;10.144;2023-07-16T01:51:00;11.20;;;6.35;;
75885;SDS011;64561;44.018;10.144;2023-07-16T01:53:28;9.57;;;6.05;;
75885;SDS011;64561;44.018;10.144;2023-07-16T01:55:55;10.15;;;5.70;;
75885;SDS011;64561;44.018;10.144;2023-07-16T01:58:22;9.15;;;6.10;;
75885;SDS011;64561;44.018;10.144;2023-07-16T02:00:50;9.35;;;6.13;;
75885;SDS011;64561;44.018;10.144;2023-07-16T02:03:17;12.80;;;7.65;;
75885;SDS011;64561;44.018;10.144;2023-07-16T02:05:44;11.30;;;6.82;;
75885;SDS011;64561;44.018;10.144;2023-07-16T02:08:11;10.07;;;6.55;;
75885;SDS011;64561;44.018;10.144;2023-07-16T02:10:38;11.98;;;6.25;;
75885;SDS011;64561;44.018;10.144;2023-07-16T02:13:06;8.60;;;6.05;;
75885;SDS011;64561;44.018;10.144;2023-07-16T02:15:33;11.50;;;6.70;;
75885;SDS011;64561;44.018;10.144;2023-07-16T02:18:04;11.35;;;6.28;;
75885;SDS011;64561;44.018;10.144;2023-07-16T02:20:54;12.07;;;6.63;;
75885;SDS011;64561;44.018;10.144;2023-07-16T02:23:21;12.25;;;7.07;;
75885;SDS011;64561;44.018;10.144;2023-07-16T02:25:48;13.05;;;6.55;;
75885;SDS011;64561;44.018;10.144;2023-07-16T02:28:16;10.85;;;7.20;;
75885;SDS011;64561;44.018;10.144;2023-07-16T02:30:43;10.25;;;6.82;;
75885;SDS011;64561;44.018;10.144;2023-07-16T02:33:11;11.77;;;6.55;;
75885;SDS011;64561;44.018;10.144;2023-07-16T02:35:38;11.57;;;7.13;;
75885;SDS011;64561;44.018;10.144;2023-07-16T02:38:05;11.05;;;7.28;;
75885;SDS011;64561;44.018;10.144;2023-07-16T02:40:32;11.75;;;6.80;;
75885;SDS011;64561;44.018;10.144;2023-07-16T02:43:00;9.52;;;7.00;;
75885;SDS011;64561;44.018;10.144;2023-07-16T02:45:27;13.65;;;7.05;;
75885;SDS011;64561;44.018;10.144;2023-07-16T02:47:54;14.02;;;7.70;;
75885;SDS011;64561;44.018;10.144;2023-07-16T02:50:21;12.75;;;7.38;;
75885;SDS011;64561;44.018;10.144;2023-07-16T02:52:48;14.10;;;6.97;;
75885;SDS011;64561;44.018;10.144;2023-07-16T02:55:15;14.02;;;7.93;;
75885;SDS011;64561;44.018;10.144;2023-07-16T02:57:43;12.68;;;7.07;;
75885;SDS011;64561;44.018;10.144;2023-07-16T03:00:10;13.73;;;6.80;;
75885;SDS011;64561;44.018;10.144;2023-07-16T03:02:37;11.15;;;6.82;;
75885;SDS011;64561;44.018;10.144;2023-07-16T03:05:05;14.00;;;7.32;;
75885;SDS011;64561;44.018;10.144;2023-07-16T03:07:33;12.55;;;8.13;;
75885;SDS011;64561;44.018;10.144;2023-07-16T03:10:00;10.27;;;7.10;;
75885;SDS011;64561;44.018;10.144;2023-07-16T03:12:29;11.48;;;7.40;;
75885;SDS011;64561;44.018;10.144;2023-07-16T03:14:56;12.13;;;7.07;;
75885;SDS011;64561;44.018;10.144;2023-07-16T03:17:23;12.02;;;7.50;;
75885;SDS011;64561;44.018;10.144;2023-07-16T03:19:50;13.93;;;6.90;;
75885;SDS011;64561;44.018;10.144;2023-07-16T03:22:18;12.70;;;6.65;;
75885;SDS011;64561;44.018;10.144;2023-07-16T03:24:45;8.07;;;6.25;;
75885;SDS011;64561;44.018;10.144;2023-07-16T03:27:12;10.23;;;6.43;;
75885;SDS011;64561;44.018;10.144;2023-07-16T03:29:49;9.85;;;6.10;;
75885;SDS011;64561;44.018;10.144;2023-07-16T03:32:17;11.82;;;6.55;;
75885;SDS011;64561;44.018;10.144;2023-07-16T03:34:45;9.50;;;6.43;;
75885;SDS011;64561;44.018;10.144;2023-07-16T03:37:12;9.13;;;6.47;;
75885;SDS011;64561;44.018;10.144;2023-07-16T03:39:39;11.02;;;7.43;;
75885;SDS011;64561;44.018;10.144;2023-07-16T03:42:06;13.13;;;6.10;;
75885;SDS011;64561;44.018;10.144;2023-07-16T03:44:33;10.85;;;6.55;;
75885;SDS011;64561;44.018;10.144;2023-07-16T03:47:02;10.57;;;6.28;;
75885;SDS011;64561;44.018;10.144;2023-07-16T03:49:30;11.10;;;6.55;;
75885;SDS011;64561;44.018;10.144;2023-07-16T03:51:57;11.80;;;7.03;;
75885;SDS011;64561;44.018;10.144;2023-07-16T03:54:25;9.77;;;5.72;;
75885;SDS011;64561;44.018;10.144;2023-07-16T03:56:52;8.98;;;5.55;;
75885;SDS011;64561;44.018;10.144;2023-07-16T03:59:19;11.93;;;6.10;;
75885;SDS011;64561;44.018;10.144;2023-07-16T04:01:46;12.80;;;6.30;;
75885;SDS011;64561;44.018;10.144;2023-07-16T04:04:14;14.38;;;5.90;;
75885;SDS011;64561;44.018;10.144;2023-07-16T04:06:41;10.48;;;6.20;;
75885;SDS011;64561;44.018;10.144;2023-07-16T04:09:08;7.95;;;5.50;;
75885;SDS011;64561;44.018;10.144;2023-07-16T04:11:35;13.18;;;6.47;;
75885;SDS011;64561;44.018;10.144;2023-07-16T04:14:02;8.48;;;6.00;;
75885;SDS011;64561;44.018;10.144;2023-07-16T04:16:29;9.95;;;5.78;;
75885;SDS011;64561;44.018;10.144;2023-07-16T04:18:56;9.38;;;5.90;;
75885;SDS011;64561;44.018;10.144;2023-07-16T04:21:23;9.23;;;6.05;;
75885;SDS011;64561;44.018;10.144;2023-07-16T04:23:51;9.45;;;5.60;;
75885;SDS011;64561;44.018;10.144;2023-07-16T04:26:18;8.40;;;6.35;;
75885;SDS011;64561;44.018;10.144;2023-07-16T04:28:45;8.45;;;6.47;;
75885;SDS011;64561;44.018;10.144;2023-07-16T04:31:12;8.43;;;6.10;;
75885;SDS011;64561;44.018;10.144;2023-07-16T04:33:39;10.13;;;6.22;;
75885;SDS011;64561;44.018;10.144;2023-07-16T04:36:06;9.80;;;5.70;;
75885;SDS011;64561;44.018;10.144;2023-07-16T04:38:36;9.50;;;5.40;;
75885;SDS011;64561;44.018;10.144;2023-07-16T04:41:03;10.95;;;6.18;;
75885;SDS011;64561;44.018;10.144;2023-07-16T04:43:30;11.10;;;5.88;;
75885;SDS011;64561;44.018;10.144;2023-07-16T04:45:57;7.45;;;5.30;;
75885;SDS011;64561;44.018;10.144;2023-07-16T04:48:25;9.25;;;6.50;;
75885;SDS011;64561;44.018;10.144;2023-07-16T04:50:53;7.70;;;5.85;;
75885;SDS011;64561;44.018;10.144;2023-07-16T04:53:20;8.45;;;6.13;;
75885;SDS011;64561;44.018;10.144;2023-07-16T04:55:48;8.43;;;5.72;;
75885;SDS011;64561;44.018;10.144;2023-07-16T04:58:16;8.35;;;6.40;;
75885;SDS011;64561;44.018;10.144;2023-07-16T05:00:43;15.68;;;8.55;;
75885;SDS011;64561;44.018;10.144;2023-07-16T05:03:10;11.25;;;6.97;;
75885;SDS011;64561;44.018;10.144;2023-07-16T05:05:38;8.95;;;6.47;;
75885;SDS011;64561;44.018;10.144;2023-07-16T05:08:05;10.77;;;6.40;;
75885;SDS011;64561;44.018;10.144;2023-07-16T05:10:32;9.57;;;7.20;;
75885;SDS011;64561;44.018;10.144;2023-07-16T05:13:00;10.73;;;6.82;;
75885;SDS011;64561;44.018;10.144;2023-07-16T05:15:27;12.25;;;6.20;;
75885;SDS011;64561;44.018;10.144;2023-07-16T05:17:54;11.07;;;6.38;;
75885;SDS011;64561;44.018;10.144;2023-07-16T05:20:21;9.23;;;6.40;;
75885;SDS011;64561;44.018;10.144;2023-07-16T05:22:48;13.05;;;6.82;;
75885;SDS011;64561;44.018;10.144;2023-07-16T05:25:16;11.95;;;6.88;;
75885;SDS011;64561;44.018;10.144;2023-07-16T05:27:43;11.18;;;7.32;;
75885;SDS011;64561;44.018;10.144;2023-07-16T05:30:10;10.10;;;7.35;;
75885;SDS011;64561;44.018;10.144;2023-07-16T05:32:37;11.85;;;6.75;;
75885;SDS011;64561;44.018;10.144;2023-07-16T05:35:05;9.98;;;6.75;;
75885;SDS011;64561;44.018;10.144;2023-07-16T05:37:32;9.18;;;5.65;;
75885;SDS011;64561;44.018;10.144;2023-07-16T05:39:59;11.68;;;6.65;;
75885;SDS011;64561;44.018;10.144;2023-07-16T05:42:27;13.85;;;7.63;;
75885;SDS011;64561;44.018;10.144;2023-07-16T05:44:54;9.73;;;7.43;;
75885;SDS011;64561;44.018;10.144;2023-07-16T05:47:22;8.23;;;6.50;;
75885;SDS011;64561;44.018;10.144;2023-07-16T05:49:49;13.30;;;6.47;;
75885;SDS011;64561;44.018;10.144;2023-07-16T05:52:16;11.68;;;6.60;;
75885;SDS011;64561;44.018;10.144;2023-07-16T05:54:43;11.85;;;6.97;;
75885;SDS011;64561;44.018;10.144;2023-07-16T05:57:11;9.48;;;6.75;;
75885;SDS011;64561;44.018;10.144;2023-07-16T05:59:38;9.57;;;7.13;;
75885;SDS011;64561;44.018;10.144;2023-07-16T06:02:06;10.18;;;6.88;;
75885;SDS011;64561;44.018;10.144;2023-07-16T06:04:33;12.90;;;7.55;;
75885;SDS011;64561;44.018;10.144;2023-07-16T06:07:00;11.20;;;6.63;;
75885;SDS011;64561;44.018;10.144;2023-07-16T06:09:27;12.48;;;6.82;;
75885;SDS011;64561;44.018;10.144;2023-07-16T06:11:54;12.77;;;7.72;;
75885;SDS011;64561;44.018;10.144;2023-07-16T06:14:21;9.02;;;6.57;;
75885;SDS011;64561;44.018;10.144;2023-07-16T06:16:48;12.02;;;7.07;;
75885;SDS011;64561;44.018;10.144;2023-07-16T06:19:16;13.85;;;7.88;;
75885;SDS011;64561;44.018;10.144;2023-07-16T06:21:43;9.77;;;6.75;;
75885;SDS011;64561;44.018;10.144;2023-07-16T06:24:10;8.85;;;6.75;;
75885;SDS011;64561;44.018;10.144;2023-07-16T06:26:41;13.10;;;6.90;;
75885;SDS011;64561;44.018;10.144;2023-07-16T06:29:08;10.90;;;6.63;;
75885;SDS011;64561;44.018;10.144;2023-07-16T06:31:35;11.20;;;7.65;;
75885;SDS011;64561;44.018;10.144;2023-07-16T06:34:03;14.20;;;7.05;;
75885;SDS011;64561;44.018;10.144;2023-07-16T06:36:30;11.25;;;7.00;;
75885;SDS011;64561;44.018;10.144;2023-07-16T06:38:57;9.50;;;7.10;;
75885;SDS011;64561;44.018;10.144;2023-07-16T06:41:24;15.48;;;8.48;;
75885;SDS011;64561;44.018;10.144;2023-07-16T06:43:51;13.52;;;7.45;;
75885;SDS011;64561;44.018;10.144;2023-07-16T06:46:21;13.40;;;8.05;;
75885;SDS011;64561;44.018;10.144;2023-07-16T06:48:48;12.85;;;8.23;;
75885;SDS011;64561;44.018;10.144;2023-07-16T06:51:15;12.05;;;7.22;;
75885;SDS011;64561;44.018;10.144;2023-07-16T06:53:43;13.88;;;7.18;;
75885;SDS011;64561;44.018;10.144;2023-07-16T06:56:10;12.27;;;7.68;;
75885;SDS011;64561;44.018;10.144;2023-07-16T06:58:37;11.82;;;8.07;;
75885;SDS011;64561;44.018;10.144;2023-07-16T07:01:05;11.98;;;8.52;;
75885;SDS011;64561;44.018;10.144;2023-07-16T07:03:32;12.05;;;8.63;;
75885;SDS011;64561;44.018;10.144;2023-07-16T07:06:03;16.27;;;9.40;;
75885;SDS011;64561;44.018;10.144;2023-07-16T07:08:31;18.00;;;9.45;;
75885;SDS011;64561;44.018;10.144;2023-07-16T07:10:58;14.27;;;7.40;;
75885;SDS011;64561;44.018;10.144;2023-07-16T07:13:26;9.90;;;7.40;;
75885;SDS011;64561;44.018;10.144;2023-07-16T07:15:53;12.75;;;7.50;;
75885;SDS011;64561;44.018;10.144;2023-07-16T07:18:20;10.70;;;7.25;;
75885;SDS011;64561;44.018;10.144;2023-07-16T07:20:47;8.82;;;6.38;;
75885;SDS011;64561;44.018;10.144;2023-07-16T07:23:16;12.90;;;6.43;;
75885;SDS011;64561;44.018;10.144;2023-07-16T07:25:43;8.65;;;6.07;;
75885;SDS011;64561;44.018;10.144;2023-07-16T07:28:14;10.60;;;5.90;;
75885;SDS011;64561;44.018;10.144;2023-07-16T07:30:41;8.55;;;6.25;;
75885;SDS011;64561;44.018;10.144;2023-07-16T07:33:09;9.05;;;6.30;;
75885;SDS011;64561;44.018;10.144;2023-07-16T07:35:36;9.27;;;6.22;;
75885;SDS011;64561;44.018;10.144;2023-07-16T07:38:03;10.52;;;6.50;;
75885;SDS011;64561;44.018;10.144;2023-07-16T07:40:30;9.30;;;6.28;;
75885;SDS011;64561;44.018;10.144;2023-07-16T07:42:57;12.32;;;6.40;;
75885;SDS011;64561;44.018;10.144;2023-07-16T07:45:25;10.10;;;6.57;;
75885;SDS011;64561;44.018;10.144;2023-07-16T07:47:52;10.27;;;7.10;;
75885;SDS011;64561;44.018;10.144;2023-07-16T07:50:20;11.80;;;6.90;;
75885;SDS011;64561;44.018;10.144;2023-07-16T07:52:47;10.45;;;6.55;;
75885;SDS011;64561;44.018;10.144;2023-07-16T07:55:14;13.43;;;7.65;;
75885;SDS011;64561;44.018;10.144;2023-07-16T07:57:41;9.15;;;6.82;;
75885;SDS011;64561;44.018;10.144;2023-07-16T08:00:09;9.65;;;6.75;;
75885;SDS011;64561;44.018;10.144;2023-07-16T08:02:40;11.23;;;6.45;;
75885;SDS011;64561;44.018;10.144;2023-07-16T08:05:07;10.68;;;6.65;;
75885;SDS011;64561;44.018;10.144;2023-07-16T08:07:35;12.77;;;7.40;;
75885;SDS011;64561;44.018;10.144;2023-07-16T08:10:03;8.32;;;6.85;;
75885;SDS011;64561;44.018;10.144;2023-07-16T08:12:30;13.77;;;7.20;;
75885;SDS011;64561;44.018;10.144;2023-07-16T08:14:58;9.73;;;6.72;;
75885;SDS011;64561;44.018;10.144;2023-07-16T08:17:25;13.88;;;7.22;;
75885;SDS011;64561;44.018;10.144;2023-07-16T08:19:53;10.95;;;7.35;;
75885;SDS011;64561;44.018;10.144;2023-07-16T08:22:20;24.02;;;7.60;;
75885;SDS011;64561;44.018;10.144;2023-07-16T08:24:51;11.75;;;7.43;;
75885;SDS011;64561;44.018;10.144;2023-07-16T08:27:18;13.48;;;7.60;;
75885;SDS011;64561;44.018;10.144;2023-07-16T08:29:46;12.02;;;7.90;;
75885;SDS011;64561;44.018;10.144;2023-07-16T08:44:36;11.85;;;8.55;;
75885;SDS011;64561;44.018;10.144;2023-07-16T08:47:05;13.00;;;7.65;;
75885;SDS011;64561;44.018;10.144;2023-07-16T09:03:01;13.57;;;9.25;;
75885;SDS011;64561;44.018;10.144;2023-07-16T09:05:29;13.25;;;9.15;;
75885;SDS011;64561;44.018;10.144;2023-07-16T09:08:06;12.13;;;9.68;;
75885;SDS011;64561;44.018;10.144;2023-07-16T09:10:34;11.38;;;8.23;;
75885;SDS011;64561;44.018;10.144;2023-07-16T09:13:02;14.77;;;8.43;;
75885;SDS011;64561;44.018;10.144;2023-07-16T09:15:29;11.60;;;9.65;;
75885;SDS011;64561;44.018;10.144;2023-07-16T09:17:57;15.20;;;9.18;;
75885;SDS011;64561;44.018;10.144;2023-07-16T09:20:24;15.02;;;8.98;;
75885;SDS011;64561;44.018;10.144;2023-07-16T09:22:54;11.63;;;8.98;;
75885;SDS011;64561;44.018;10.144;2023-07-16T09:25:26;13.25;;;9.25;;
75885;SDS011;64561;44.018;10.144;2023-07-16T09:27:54;10.52;;;8.70;;
75885;SDS011;64561;44.018;10.144;2023-07-16T09:30:21;12.27;;;9.20;;
75885;SDS011;64561;44.018;10.144;2023-07-16T09:32:49;9.65;;;8.30;;
75885;SDS011;64561;44.018;10.144;2023-07-16T09:35:16;13.43;;;8.57;;
75885;SDS011;64561;44.018;10.144;2023-07-16T09:37:44;14.13;;;8.35;;
75885;SDS011;64561;44.018;10.144;2023-07-16T09:40:11;13.18;;;8.70;;
75885;SDS011;64561;44.018;10.144;2023-07-16T09:42:39;11.98;;;8.40;;
75885;SDS011;64561;44.018;10.144;2023-07-16T09:45:08;14.55;;;9.02;;
75885;SDS011;64561;44.018;10.144;2023-07-16T09:47:44;13.45;;;8.40;;
75885;SDS011;64561;44.018;10.144;2023-07-16T09:50:11;12.27;;;8.18;;
75885;SDS011;64561;44.018;10.144;2023-07-16T09:52:38;13.23;;;9.80;;
75885;SDS011;64561;44.018;10.144;2023-07-16T09:55:09;14.32;;;9.00;;
75885;SDS011;64561;44.018;10.144;2023-07-16T09:57:39;11.80;;;8.48;;
75885;SDS011;64561;44.018;10.144;2023-07-16T10:00:10;16.98;;;9.48;;
75885;SDS011;64561;44.018;10.144;2023-07-16T10:05:14;14.27;;;8.55;;
75885;SDS011;64561;44.018;10.144;2023-07-16T10:07:48;15.93;;;8.68;;
75885;SDS011;64561;44.018;10.144;2023-07-16T10:10:17;13.75;;;8.13;;
75885;SDS011;64561;44.018;10.144;2023-07-16T10:13:01;11.02;;;8.30;;
75885;SDS011;64561;44.018;10.144;2023-07-16T10:15:29;13.05;;;7.97;;
75885;SDS011;64561;44.018;10.144;2023-07-16T10:17:57;13.68;;;9.40;;
75885;SDS011;64561;44.018;10.144;2023-07-16T10:20:31;15.48;;;9.20;;
75885;SDS011;64561;44.018;10.144;2023-07-16T10:23:10;11.82;;;8.32;;
75885;SDS011;64561;44.018;10.144;2023-07-16T10:25:41;13.45;;;9.93;;
75885;SDS011;64561;44.018;10.144;2023-07-16T10:28:28;14.82;;;8.73;;
75885;SDS011;64561;44.018;10.144;2023-07-16T10:30:55;14.48;;;9.20;;
75885;SDS011;64561;44.018;10.144;2023-07-16T10:33:23;12.85;;;8.73;;
75885;SDS011;64561;44.018;10.144;2023-07-16T10:35:51;16.08;;;9.90;;
75885;SDS011;64561;44.018;10.144;2023-07-16T10:38:18;15.88;;;9.30;;
75885;SDS011;64561;44.018;10.144;2023-07-16T10:40:45;18.52;;;9.50;;
75885;SDS011;64561;44.018;10.144;2023-07-16T10:43:13;13.10;;;8.88;;
75885;SDS011;64561;44.018;10.144;2023-07-16T10:45:40;15.63;;;9.70;;
75885;SDS011;64561;44.018;10.144;2023-07-16T10:48:08;10.98;;;8.98;;
75885;SDS011;64561;44.018;10.144;2023-07-16T10:50:35;12.75;;;8.93;;
75885;SDS011;64561;44.018;10.144;2023-07-16T10:53:02;14.20;;;9.48;;
75885;SDS011;64561;44.018;10.144;2023-07-16T10:55:30;15.43;;;9.20;;
75885;SDS011;64561;44.018;10.144;2023-07-16T10:58:03;15.43;;;9.20;;
75885;SDS011;64561;44.018;10.144;2023-07-16T11:00:36;11.65;;;8.38;;
75885;SDS011;64561;44.018;10.144;2023-07-16T11:03:04;17.38;;;9.93;;
75885;SDS011;64561;44.018;10.144;2023-07-16T11:05:35;15.90;;;7.82;;
75885;SDS011;64561;44.018;10.144;2023-07-16T11:08:03;14.77;;;8.50;;
75885;SDS011;64561;44.018;10.144;2023-07-16T11:10:30;11.43;;;8.02;;
75885;SDS011;64561;44.018;10.144;2023-07-16T11:12:57;10.68;;;7.88;;
75885;SDS011;64561;44.018;10.144;2023-07-16T11:15:35;12.18;;;8.20;;
75885;SDS011;64561;44.018;10.144;2023-07-16T11:18:03;12.57;;;7.90;;
75885;SDS011;64561;44.018;10.144;2023-07-16T11:20:30;14.10;;;8.75;;
75885;SDS011;64561;44.018;10.144;2023-07-16T11:22:58;13.52;;;8.20;;
75885;SDS011;64561;44.018;10.144;2023-07-16T11:25:27;13.40;;;7.22;;
75885;SDS011;64561;44.018;10.144;2023-07-16T11:27:55;10.40;;;7.65;;
75885;SDS011;64561;44.018;10.144;2023-07-16T11:30:23;15.50;;;7.88;;
75885;SDS011;64561;44.018;10.144;2023-07-16T11:32:52;13.13;;;7.97;;
75885;SDS011;64561;44.018;10.144;2023-07-16T11:35:20;12.32;;;7.80;;
75885;SDS011;64561;44.018;10.144;2023-07-16T11:37:47;14.52;;;8.55;;
75885;SDS011;64561;44.018;10.144;2023-07-16T11:40:15;17.92;;;12.60;;
75885;SDS011;64561;44.018;10.144;2023-07-16T11:42:46;13.98;;;8.57;;
75885;SDS011;64561;44.018;10.144;2023-07-16T11:45:15;13.73;;;7.82;;
75885;SDS011;64561;44.018;10.144;2023-07-16T11:47:54;11.85;;;7.85;;
75885;SDS011;64561;44.018;10.144;2023-07-16T11:50:22;12.00;;;7.15;;
75885;SDS011;64561;44.018;10.144;2023-07-16T11:52:52;13.55;;;7.63;;
75885;SDS011;64561;44.018;10.144;2023-07-16T11:55:21;15.25;;;8.10;;
75885;SDS011;64561;44.018;10.144;2023-07-16T11:57:48;10.27;;;7.18;;
75885;SDS011;64561;44.018;10.144;2023-07-16T12:00:15;10.50;;;7.15;;
75885;SDS011;64561;44.018;10.144;2023-07-16T12:02:44;12.00;;;7.22;;
75885;SDS011;64561;44.018;10.144;2023-07-16T12:05:18;21.83;;;8.00;;
75885;SDS011;64561;44.018;10.144;2023-07-16T12:07:56;12.90;;;6.93;;
75885;SDS011;64561;44.018;10.144;2023-07-16T12:10:23;13.10;;;7.18;;
75885;SDS011;64561;44.018;10.144;2023-07-16T12:12:50;15.10;;;6.85;;
75885;SDS011;64561;44.018;10.144;2023-07-16T12:15:18;14.20;;;7.13;;
75885;SDS011;64561;44.018;10.144;2023-07-16T12:17:45;14.10;;;7.47;;
75885;SDS011;64561;44.018;10.144;2023-07-16T12:20:12;13.13;;;7.75;;
75885;SDS011;64561;44.018;10.144;2023-07-16T12:22:39;11.77;;;7.18;;
75885;SDS011;64561;44.018;10.144;2023-07-16T12:25:07;12.93;;;7.93;;
75885;SDS011;64561;44.018;10.144;2023-07-16T12:27:34;15.00;;;6.95;;
75885;SDS011;64561;44.018;10.144;2023-07-16T12:30:02;12.88;;;7.07;;
75885;SDS011;64561;44.018;10.144;2023-07-16T12:32:31;9.63;;;6.28;;
75885;SDS011;64561;44.018;10.144;2023-07-16T12:34:58;9.68;;;7.43;;
75885;SDS011;64561;44.018;10.144;2023-07-16T12:37:29;9.77;;;6.97;;
75885;SDS011;64561;44.018;10.144;2023-07-16T12:40:01;12.63;;;7.00;;
75885;SDS011;64561;44.018;10.144;2023-07-16T12:42:30;12.25;;;6.97;;
75885;SDS011;64561;44.018;10.144;2023-07-16T12:44:57;11.23;;;6.68;;
75885;SDS011;64561;44.018;10.144;2023-07-16T12:47:24;11.90;;;6.68;;
75885;SDS011;64561;44.018;10.144;2023-07-16T12:49:51;10.43;;;6.85;;
75885;SDS011;64561;44.018;10.144;2023-07-16T12:52:19;11.15;;;6.80;;
75885;SDS011;64561;44.018;10.144;2023-07-16T12:54:46;11.15;;;6.80;;
75885;SDS011;64561;44.018;10.144;2023-07-16T12:57:13;10.20;;;6.68;;
75885;SDS011;64561;44.018;10.144;2023-07-16T12:59:40;12.27;;;7.05;;
75885;SDS011;64561;44.018;10.144;2023-07-16T13:02:08;12.73;;;7.40;;
75885;SDS011;64561;44.018;10.144;2023-07-16T13:04:36;16.67;;;8.02;;
75885;SDS011;64561;44.018;10.144;2023-07-16T13:07:03;12.48;;;7.65;;
75885;SDS011;64561;44.018;10.144;2023-07-16T13:09:30;10.32;;;7.45;;
75885;SDS011;64561;44.018;10.144;2023-07-16T13:11:57;9.23;;;5.78;;
75885;SDS011;64561;44.018;10.144;2023-07-16T13:14:25;9.95;;;7.03;;
75885;SDS011;64561;44.018;10.144;2023-07-16T13:16:53;13.07;;;6.50;;
75885;SDS011;64561;44.018;10.144;2023-07-16T13:19:20;9.88;;;5.90;;
75885;SDS011;64561;44.018;10.144;2023-07-16T13:21:48;11.02;;;6.43;;
75885;SDS011;64561;44.018;10.144;2023-07-16T13:24:15;14.82;;;6.53;;
75885;SDS011;64561;44.018;10.144;2023-07-16T13:26:42;13.55;;;7.05;;
75885;SDS011;64561;44.018;10.144;2023-07-16T13:29:14;13.07;;;5.97;;
75885;SDS011;64561;44.018;10.144;2023-07-16T13:31:41;9.68;;;5.65;;
75885;SDS011;64561;44.018;10.144;2023-07-16T13:34:08;9.88;;;6.22;;
75885;SDS011;64561;44.018;10.144;2023-07-16T13:36:35;10.27;;;5.90;;
75885;SDS011;64561;44.018;10.144;2023-07-16T13:39:02;11.25;;;6.03;;
75885;SDS011;64561;44.018;10.144;2023-07-16T13:41:32;10.20;;;6.20;;
75885;SDS011;64561;44.018;10.144;2023-07-16T13:43:59;10.60;;;6.00;;
75885;SDS011;64561;44.018;10.144;2023-07-16T13:46:26;10.70;;;6.43;;
75885;SDS011;64561;44.018;10.144;2023-07-16T13:48:53;9.32;;;6.55;;
75885;SDS011;64561;44.018;10.144;2023-07-16T13:51:25;8.95;;;5.90;;
75885;SDS011;64561;44.018;10.144;2023-07-16T13:53:53;11.82;;;5.38;;
75885;SDS011;64561;44.018;10.144;2023-07-16T13:56:20;8.75;;;5.35;;
75885;SDS011;64561;44.018;10.144;2023-07-16T13:58:47;12.90;;;5.80;;
75885;SDS011;64561;44.018;10.144;2023-07-16T14:01:14;13.50;;;6.28;;
75885;SDS011;64561;44.018;10.144;2023-07-16T14:03:43;8.25;;;5.13;;
75885;SDS011;64561;44.018;10.144;2023-07-16T14:06:11;9.35;;;5.82;;
75885;SDS011;64561;44.018;10.144;2023-07-16T14:08:41;7.18;;;5.20;;
75885;SDS011;64561;44.018;10.144;2023-07-16T14:11:09;10.60;;;5.97;;
75885;SDS011;64561;44.018;10.144;2023-07-16T14:13:36;7.88;;;5.25;;
75885;SDS011;64561;44.018;10.144;2023-07-16T14:16:03;9.70;;;5.53;;
75885;SDS011;64561;44.018;10.144;2023-07-16T14:18:30;7.60;;;5.68;;
75885;SDS011;64561;44.018;10.144;2023-07-16T14:20:58;7.43;;;5.72;;
75885;SDS011;64561;44.018;10.144;2023-07-16T14:23:25;8.15;;;5.57;;
75885;SDS011;64561;44.018;10.144;2023-07-16T14:25:52;10.52;;;5.18;;
75885;SDS011;64561;44.018;10.144;2023-07-16T14:28:19;10.95;;;5.38;;
75885;SDS011;64561;44.018;10.144;2023-07-16T14:30:46;10.73;;;5.63;;
75885;SDS011;64561;44.018;10.144;2023-07-16T14:33:13;9.23;;;5.55;;
75885;SDS011;64561;44.018;10.144;2023-07-16T14:35:41;8.07;;;5.80;;
75885;SDS011;64561;44.018;10.144;2023-07-16T14:38:10;9.82;;;5.65;;
75885;SDS011;64561;44.018;10.144;2023-07-16T14:40:38;12.25;;;6.10;;
75885;SDS011;64561;44.018;10.144;2023-07-16T14:43:05;11.82;;;6.05;;
75885;SDS011;64561;44.018;10.144;2023-07-16T14:45:35;7.80;;;5.50;;
75885;SDS011;64561;44.018;10.144;2023-07-16T14:48:03;12.27;;;5.75;;
75885;SDS011;64561;44.018;10.144;2023-07-16T14:50:31;12.18;;;6.63;;
75885;SDS011;64561;44.018;10.144;2023-07-16T14:52:58;8.02;;;5.63;;
75885;SDS011;64561;44.018;10.144;2023-07-16T14:55:26;11.77;;;5.22;;
75885;SDS011;64561;44.018;10.144;2023-07-16T14:57:53;15.73;;;5.88;;
75885;SDS011;64561;44.018;10.144;2023-07-16T15:00:21;12.70;;;6.45;;
75885;SDS011;64561;44.018;10.144;2023-07-16T15:02:48;9.63;;;5.70;;